sensor_id;sensor_type;location;lat;lon;timestamp;temperature;humidity
47174;DHT22;36730;49.036;9.094;2023-05-02T00:00:35;21.60;62.60
47174;DHT22;36730;49.036;9.094;2023-05-02T00:03:01;21.60;62.50
47174;DHT22;36730;49.036;9.094;2023-05-02T00:05:28;21.60;62.60
47174;DHT22;36730;49.036;9.094;2023-05-02T00:07:53;21.60;62.60
47174;DHT22;36730;49.036;9.094;2023-05-02T00:10:19;21.60;62.80
47174;DHT22;36730;49.036;9.094;2023-05-02T00:12:44;21.60;62.70
47174;DHT22;36730;49.036;9.094;2023-05-02T00:15:09;21.60;62.70
47174;DHT22;36730;49.036;9.094;2023-05-02T00:17:35;21.60;62.80
47174;DHT22;36730;49.036;9.094;2023-05-02T00:20:01;21.60;63.40
47174;DHT22;36730;49.036;9.094;2023-05-02T00:22:28;21.60;62.80
47174;DHT22;36730;49.036;9.094;2023-05-02T00:24:57;21.60;62.80
47174;DHT22;36730;49.036;9.094;2023-05-02T00:27:23;21.60;62.80
47174;DHT22;36730;49.036;9.094;2023-05-02T00:29:48;21.60;62.80
47174;DHT22;36730;49.036;9.094;2023-05-02T00:32:13;21.60;62.90
47174;DHT22;36730;49.036;9.094;2023-05-02T00:34:39;21.50;62.90
47174;DHT22;36730;49.036;9.094;2023-05-02T00:37:05;21.60;62.90
47174;DHT22;36730;49.036;9.094;2023-05-02T00:39:30;21.60;62.90
47174;DHT22;36730;49.036;9.094;2023-05-02T00:41:56;21.60;62.90
47174;DHT22;36730;49.036;9.094;2023-05-02T00:44:22;21.50;62.90
47174;DHT22;36730;49.036;9.094;2023-05-02T00:46:47;21.60;63.00
47174;DHT22;36730;49.036;9.094;2023-05-02T00:49:13;21.50;63.00
47174;DHT22;36730;49.036;9.094;2023-05-02T00:51:39;21.50;63.00
47174;DHT22;36730;49.036;9.094;2023-05-02T00:54:04;21.50;63.00
47174;DHT22;36730;49.036;9.094;2023-05-02T00:56:30;21.50;63.00
47174;DHT22;36730;49.036;9.094;2023-05-02T00:58:55;21.50;63.00
47174;DHT22;36730;49.036;9.094;2023-05-02T01:01:28;21.50;63.10
47174;DHT22;36730;49.036;9.094;2023-05-02T01:04:08;21.50;63.10
47174;DHT22;36730;49.036;9.094;2023-05-02T01:09:21;21.50;63.10
47174;DHT22;36730;49.036;9.094;2023-05-02T01:14:16;21.50;63.20
47174;DHT22;36730;49.036;9.094;2023-05-02T01:16:42;21.40;63.10
47174;DHT22;36730;49.036;9.094;2023-05-02T01:19:11;21.40;63.20
47174;DHT22;36730;49.036;9.094;2023-05-02T01:21:38;21.40;63.10
47174;DHT22;36730;49.036;9.094;2023-05-02T01:26:34;21.40;63.20
47174;DHT22;36730;49.036;9.094;2023-05-02T01:29:02;21.40;63.20
47174;DHT22;36730;49.036;9.094;2023-05-02T01:31:30;21.40;63.20
47174;DHT22;36730;49.036;9.094;2023-05-02T01:33:56;21.40;63.30
47174;DHT22;36730;49.036;9.094;2023-05-02T01:36:24;21.40;63.30
47174;DHT22;36730;49.036;9.094;2023-05-02T01:38:51;21.40;63.30
47174;DHT22;36730;49.036;9.094;2023-05-02T01:41:17;21.40;63.30
47174;DHT22;36730;49.036;9.094;2023-05-02T01:43:42;21.40;63.40
47174;DHT22;36730;49.036;9.094;2023-05-02T01:46:08;21.40;63.30
47174;DHT22;36730;49.036;9.094;2023-05-02T01:48:35;21.40;63.30
47174;DHT22;36730;49.036;9.094;2023-05-02T01:51:00;21.40;63.30
47174;DHT22;36730;49.036;9.094;2023-05-02T01:53:27;21.30;63.30
47174;DHT22;36730;49.036;9.094;2023-05-02T01:55:53;21.30;63.30
47174;DHT22;36730;49.036;9.094;2023-05-02T01:58:19;21.30;63.40
47174;DHT22;36730;49.036;9.094;2023-05-02T02:00:45;21.30;63.30
47174;DHT22;36730;49.036;9.094;2023-05-02T02:03:10;21.30;63.40
47174;DHT22;36730;49.036;9.094;2023-05-02T02:05:36;21.30;63.40
47174;DHT22;36730;49.036;9.094;2023-05-02T02:08:04;21.30;63.30
47174;DHT22;36730;49.036;9.094;2023-05-02T02:10:31;21.30;63.30
47174;DHT22;36730;49.036;9.094;2023-05-02T02:13:03;21.30;63.30
47174;DHT22;36730;49.036;9.094;2023-05-02T02:15:33;21.30;63.20
47174;DHT22;36730;49.036;9.094;2023-05-02T02:17:59;21.30;63.20
47174;DHT22;36730;49.036;9.094;2023-05-02T02:20:25;21.30;63.20
47174;DHT22;36730;49.036;9.094;2023-05-02T02:22:51;21.30;63.20
47174;DHT22;36730;49.036;9.094;2023-05-02T02:25:18;21.30;63.10
47174;DHT22;36730;49.036;9.094;2023-05-02T02:27:44;21.30;63.10
47174;DHT22;36730;49.036;9.094;2023-05-02T02:30:09;21.20;63.10
47174;DHT22;36730;49.036;9.094;2023-05-02T02:32:35;21.20;63.00
47174;DHT22;36730;49.036;9.094;2023-05-02T02:35:01;21.20;62.90
47174;DHT22;36730;49.036;9.094;2023-05-02T02:37:31;21.30;63.00
47174;DHT22;36730;49.036;9.094;2023-05-02T02:40:03;21.20;62.80
47174;DHT22;36730;49.036;9.094;2023-05-02T02:45:54;21.20;62.80
47174;DHT22;36730;49.036;9.094;2023-05-02T02:48:18;21.20;62.80
47174;DHT22;36730;49.036;9.094;2023-05-02T02:53:32;21.20;63.00
47174;DHT22;36730;49.036;9.094;2023-05-02T02:56:05;21.20;63.10
47174;DHT22;36730;49.036;9.094;2023-05-02T02:58:45;21.20;63.10
47174;DHT22;36730;49.036;9.094;2023-05-02T03:01:16;21.20;63.10
47174;DHT22;36730;49.036;9.094;2023-05-02T03:03:43;21.20;63.10
47174;DHT22;36730;49.036;9.094;2023-05-02T03:06:09;21.20;63.10
47174;DHT22;36730;49.036;9.094;2023-05-02T03:08:41;21.20;63.10
47174;DHT22;36730;49.036;9.094;2023-05-02T03:11:07;21.20;63.00
47174;DHT22;36730;49.036;9.094;2023-05-02T03:13:33;21.20;63.10
47174;DHT22;36730;49.036;9.094;2023-05-02T03:16:21;21.20;63.10
47174;DHT22;36730;49.036;9.094;2023-05-02T03:18:49;21.20;63.10
47174;DHT22;36730;49.036;9.094;2023-05-02T03:21:14;21.30;63.20
47174;DHT22;36730;49.036;9.094;2023-05-02T03:23:40;21.30;63.10
47174;DHT22;36730;49.036;9.094;2023-05-02T03:26:05;21.20;63.20
47174;DHT22;36730;49.036;9.094;2023-05-02T03:28:31;21.30;63.30
47174;DHT22;36730;49.036;9.094;2023-05-02T03:30:56;21.30;63.20
47174;DHT22;36730;49.036;9.094;2023-05-02T03:33:22;21.30;63.20
47174;DHT22;36730;49.036;9.094;2023-05-02T03:35:47;21.30;63.10
47174;DHT22;36730;49.036;9.094;2023-05-02T03:38:13;21.30;63.10
47174;DHT22;36730;49.036;9.094;2023-05-02T03:40:38;21.40;63.10
47174;DHT22;36730;49.036;9.094;2023-05-02T03:43:04;21.40;63.10
47174;DHT22;36730;49.036;9.094;2023-05-02T03:45:29;21.40;63.00
47174;DHT22;36730;49.036;9.094;2023-05-02T03:47:55;21.40;63.10
47174;DHT22;36730;49.036;9.094;2023-05-02T03:50:21;21.40;63.10
47174;DHT22;36730;49.036;9.094;2023-05-02T03:52:46;21.40;62.80
47174;DHT22;36730;49.036;9.094;2023-05-02T03:55:12;21.50;62.80
47174;DHT22;36730;49.036;9.094;2023-05-02T03:57:37;21.50;62.60
47174;DHT22;36730;49.036;9.094;2023-05-02T04:00:03;21.50;62.70
47174;DHT22;36730;49.036;9.094;2023-05-02T04:02:30;21.50;62.60
47174;DHT22;36730;49.036;9.094;2023-05-02T04:04:55;21.60;62.50
47174;DHT22;36730;49.036;9.094;2023-05-02T04:07:21;21.60;62.60
47174;DHT22;36730;49.036;9.094;2023-05-02T04:09:46;21.60;62.50
47174;DHT22;36730;49.036;9.094;2023-05-02T04:12:13;21.60;62.40
47174;DHT22;36730;49.036;9.094;2023-05-02T04:14:39;21.60;62.40
47174;DHT22;36730;49.036;9.094;2023-05-02T04:17:05;21.60;62.30
47174;DHT22;36730;49.036;9.094;2023-05-02T04:19:31;21.60;62.20
47174;DHT22;36730;49.036;9.094;2023-05-02T04:21:56;21.70;62.30
47174;DHT22;36730;49.036;9.094;2023-05-02T04:24:22;21.70;62.20
47174;DHT22;36730;49.036;9.094;2023-05-02T04:26:47;21.70;62.20
47174;DHT22;36730;49.036;9.094;2023-05-02T04:29:13;21.70;62.10
47174;DHT22;36730;49.036;9.094;2023-05-02T04:31:38;21.80;62.10
47174;DHT22;36730;49.036;9.094;2023-05-02T04:34:05;21.80;62.10
47174;DHT22;36730;49.036;9.094;2023-05-02T04:36:30;21.80;62.40
47174;DHT22;36730;49.036;9.094;2023-05-02T04:38:56;21.80;62.30
47174;DHT22;36730;49.036;9.094;2023-05-02T04:41:21;21.80;62.40
47174;DHT22;36730;49.036;9.094;2023-05-02T04:43:47;21.80;62.40
47174;DHT22;36730;49.036;9.094;2023-05-02T04:46:12;21.80;62.60
47174;DHT22;36730;49.036;9.094;2023-05-02T04:48:38;21.90;62.90
47174;DHT22;36730;49.036;9.094;2023-05-02T04:51:09;21.90;62.70
47174;DHT22;36730;49.036;9.094;2023-05-02T04:53:36;21.90;62.60
47174;DHT22;36730;49.036;9.094;2023-05-02T04:56:01;21.90;62.80
47174;DHT22;36730;49.036;9.094;2023-05-02T04:58:27;21.90;62.80
47174;DHT22;36730;49.036;9.094;2023-05-02T05:00:52;22.00;62.60
47174;DHT22;36730;49.036;9.094;2023-05-02T05:03:19;21.90;63.60
47174;DHT22;36730;49.036;9.094;2023-05-02T05:05:44;22.00;63.40
47174;DHT22;36730;49.036;9.094;2023-05-02T05:08:10;22.00;63.20
47174;DHT22;36730;49.036;9.094;2023-05-02T05:10:35;22.00;63.40
47174;DHT22;36730;49.036;9.094;2023-05-02T05:13:01;22.00;63.30
47174;DHT22;36730;49.036;9.094;2023-05-02T05:15:26;22.00;63.50
47174;DHT22;36730;49.036;9.094;2023-05-02T05:17:52;22.10;62.90
47174;DHT22;36730;49.036;9.094;2023-05-02T05:20:17;22.10;63.80
47174;DHT22;36730;49.036;9.094;2023-05-02T05:22:44;22.10;63.60
47174;DHT22;36730;49.036;9.094;2023-05-02T05:25:09;22.10;63.10
47174;DHT22;36730;49.036;9.094;2023-05-02T05:27:35;22.20;63.30
47174;DHT22;36730;49.036;9.094;2023-05-02T05:30:00;22.20;63.90
47174;DHT22;36730;49.036;9.094;2023-05-02T05:32:26;22.20;63.40
47174;DHT22;36730;49.036;9.094;2023-05-02T05:34:51;22.30;63.50
47174;DHT22;36730;49.036;9.094;2023-05-02T05:37:18;22.20;63.20
47174;DHT22;36730;49.036;9.094;2023-05-02T05:39:43;22.20;63.80
47174;DHT22;36730;49.036;9.094;2023-05-02T05:42:09;22.20;63.80
47174;DHT22;36730;49.036;9.094;2023-05-02T05:44:35;22.30;63.70
47174;DHT22;36730;49.036;9.094;2023-05-02T05:47:00;22.30;63.30
47174;DHT22;36730;49.036;9.094;2023-05-02T05:49:25;22.30;63.30
47174;DHT22;36730;49.036;9.094;2023-05-02T05:51:54;22.30;63.10
47174;DHT22;36730;49.036;9.094;2023-05-02T05:54:23;22.40;63.50
47174;DHT22;36730;49.036;9.094;2023-05-02T05:56:48;22.40;64.10
47174;DHT22;36730;49.036;9.094;2023-05-02T05:59:14;22.40;63.70
47174;DHT22;36730;49.036;9.094;2023-05-02T06:01:40;22.40;64.00
47174;DHT22;36730;49.036;9.094;2023-05-02T06:04:06;22.50;64.00
47174;DHT22;36730;49.036;9.094;2023-05-02T06:06:32;22.40;64.20
47174;DHT22;36730;49.036;9.094;2023-05-02T06:08:57;22.50;63.80
47174;DHT22;36730;49.036;9.094;2023-05-02T06:11:23;22.60;63.30
47174;DHT22;36730;49.036;9.094;2023-05-02T06:13:50;22.60;63.80
47174;DHT22;36730;49.036;9.094;2023-05-02T06:16:15;22.60;63.60
47174;DHT22;36730;49.036;9.094;2023-05-02T06:18:42;22.60;64.00
47174;DHT22;36730;49.036;9.094;2023-05-02T06:21:08;22.60;63.90
47174;DHT22;36730;49.036;9.094;2023-05-02T06:23:33;22.60;64.50
47174;DHT22;36730;49.036;9.094;2023-05-02T06:25:59;22.70;64.30
47174;DHT22;36730;49.036;9.094;2023-05-02T06:28:25;22.70;63.50
47174;DHT22;36730;49.036;9.094;2023-05-02T06:31:00;22.70;63.70
47174;DHT22;36730;49.036;9.094;2023-05-02T06:33:27;22.70;63.20
47174;DHT22;36730;49.036;9.094;2023-05-02T06:35:53;22.80;64.00
47174;DHT22;36730;49.036;9.094;2023-05-02T06:38:18;22.80;64.00
47174;DHT22;36730;49.036;9.094;2023-05-02T06:40:44;22.80;63.30
47174;DHT22;36730;49.036;9.094;2023-05-02T06:43:10;22.80;63.20
47174;DHT22;36730;49.036;9.094;2023-05-02T06:45:35;22.90;63.60
47174;DHT22;36730;49.036;9.094;2023-05-02T06:48:01;23.00;63.20
47174;DHT22;36730;49.036;9.094;2023-05-02T06:50:27;23.00;63.10
47174;DHT22;36730;49.036;9.094;2023-05-02T06:52:53;23.00;63.00
47174;DHT22;36730;49.036;9.094;2023-05-02T06:55:18;23.00;63.10
47174;DHT22;36730;49.036;9.094;2023-05-02T06:57:44;23.00;63.00
47174;DHT22;36730;49.036;9.094;2023-05-02T07:00:09;23.00;63.10
47174;DHT22;36730;49.036;9.094;2023-05-02T07:02:35;23.00;63.10
47174;DHT22;36730;49.036;9.094;2023-05-02T07:05:00;23.10;63.50
47174;DHT22;36730;49.036;9.094;2023-05-02T07:07:26;23.20;63.50
47174;DHT22;36730;49.036;9.094;2023-05-02T07:09:52;23.10;62.80
47174;DHT22;36730;49.036;9.094;2023-05-02T07:12:17;23.20;62.80
47174;DHT22;36730;49.036;9.094;2023-05-02T07:14:43;23.20;62.50
47174;DHT22;36730;49.036;9.094;2023-05-02T07:17:11;23.20;61.00
47174;DHT22;36730;49.036;9.094;2023-05-02T07:19:36;23.20;61.00
47174;DHT22;36730;49.036;9.094;2023-05-02T07:22:01;23.20;61.40
47174;DHT22;36730;49.036;9.094;2023-05-02T07:24:27;23.20;60.90
47174;DHT22;36730;49.036;9.094;2023-05-02T07:26:53;23.20;62.00
47174;DHT22;36730;49.036;9.094;2023-05-02T07:29:18;23.20;61.90
47174;DHT22;36730;49.036;9.094;2023-05-02T07:31:44;23.20;61.80
47174;DHT22;36730;49.036;9.094;2023-05-02T07:34:09;23.30;62.00
47174;DHT22;36730;49.036;9.094;2023-05-02T07:36:35;23.30;62.10
47174;DHT22;36730;49.036;9.094;2023-05-02T07:39:00;23.30;61.90
47174;DHT22;36730;49.036;9.094;2023-05-02T07:41:25;23.40;61.80
47174;DHT22;36730;49.036;9.094;2023-05-02T07:43:51;23.40;62.00
47174;DHT22;36730;49.036;9.094;2023-05-02T07:46:16;23.40;62.00
47174;DHT22;36730;49.036;9.094;2023-05-02T07:48:42;23.40;62.00
47174;DHT22;36730;49.036;9.094;2023-05-02T07:51:08;23.40;61.90
47174;DHT22;36730;49.036;9.094;2023-05-02T07:53:33;23.50;61.80
47174;DHT22;36730;49.036;9.094;2023-05-02T07:55:59;23.60;61.90
47174;DHT22;36730;49.036;9.094;2023-05-02T07:58:25;23.50;61.90
47174;DHT22;36730;49.036;9.094;2023-05-02T08:00:51;23.60;62.80
47174;DHT22;36730;49.036;9.094;2023-05-02T08:03:16;23.60;62.00
47174;DHT22;36730;49.036;9.094;2023-05-02T08:05:42;23.60;62.20
47174;DHT22;36730;49.036;9.094;2023-05-02T08:08:07;23.60;62.10
47174;DHT22;36730;49.036;9.094;2023-05-02T08:10:33;23.60;62.10
47174;DHT22;36730;49.036;9.094;2023-05-02T08:12:58;23.70;62.40
47174;DHT22;36730;49.036;9.094;2023-05-02T08:15:24;23.70;62.80
47174;DHT22;36730;49.036;9.094;2023-05-02T08:17:49;23.70;63.30
47174;DHT22;36730;49.036;9.094;2023-05-02T08:20:15;23.80;63.20
47174;DHT22;36730;49.036;9.094;2023-05-02T08:22:41;23.80;63.00
47174;DHT22;36730;49.036;9.094;2023-05-02T08:25:06;23.80;62.80
47174;DHT22;36730;49.036;9.094;2023-05-02T08:27:32;23.90;63.10
47174;DHT22;36730;49.036;9.094;2023-05-02T08:29:59;23.90;63.30
47174;DHT22;36730;49.036;9.094;2023-05-02T08:32:25;23.90;63.60
47174;DHT22;36730;49.036;9.094;2023-05-02T08:34:53;24.00;63.30
47174;DHT22;36730;49.036;9.094;2023-05-02T08:37:21;24.00;63.70
47174;DHT22;36730;49.036;9.094;2023-05-02T08:39:46;24.00;63.60
47174;DHT22;36730;49.036;9.094;2023-05-02T08:42:12;24.10;63.70
47174;DHT22;36730;49.036;9.094;2023-05-02T08:44:37;24.10;63.40
47174;DHT22;36730;49.036;9.094;2023-05-02T08:47:03;24.10;63.00
47174;DHT22;36730;49.036;9.094;2023-05-02T08:49:31;24.20;63.00
47174;DHT22;36730;49.036;9.094;2023-05-02T08:51:58;24.20;63.00
47174;DHT22;36730;49.036;9.094;2023-05-02T08:54:23;24.30;63.10
47174;DHT22;36730;49.036;9.094;2023-05-02T08:56:50;24.30;62.80
47174;DHT22;36730;49.036;9.094;2023-05-02T08:59:16;24.30;63.20
47174;DHT22;36730;49.036;9.094;2023-05-02T09:01:41;24.30;62.70
47174;DHT22;36730;49.036;9.094;2023-05-02T09:04:08;24.40;62.50
47174;DHT22;36730;49.036;9.094;2023-05-02T09:06:35;24.40;62.50
47174;DHT22;36730;49.036;9.094;2023-05-02T09:09:00;24.40;62.80
47174;DHT22;36730;49.036;9.094;2023-05-02T09:11:26;24.40;62.70
47174;DHT22;36730;49.036;9.094;2023-05-02T09:13:51;24.50;62.20
47174;DHT22;36730;49.036;9.094;2023-05-02T09:16:23;24.50;62.20
47174;DHT22;36730;49.036;9.094;2023-05-02T09:18:56;24.60;62.10
47174;DHT22;36730;49.036;9.094;2023-05-02T09:21:26;24.60;62.10
47174;DHT22;36730;49.036;9.094;2023-05-02T09:23:59;24.70;62.30
47174;DHT22;36730;49.036;9.094;2023-05-02T09:26:29;24.70;62.00
47174;DHT22;36730;49.036;9.094;2023-05-02T09:28:59;24.80;62.10
47174;DHT22;36730;49.036;9.094;2023-05-02T09:31:29;24.80;61.80
47174;DHT22;36730;49.036;9.094;2023-05-02T09:33:54;24.80;61.90
47174;DHT22;36730;49.036;9.094;2023-05-02T09:36:21;24.90;62.10
47174;DHT22;36730;49.036;9.094;2023-05-02T09:38:48;25.00;62.20
47174;DHT22;36730;49.036;9.094;2023-05-02T09:41:13;25.10;62.20
47174;DHT22;36730;49.036;9.094;2023-05-02T09:43:39;25.10;62.10
47174;DHT22;36730;49.036;9.094;2023-05-02T09:46:08;25.10;62.10
47174;DHT22;36730;49.036;9.094;2023-05-02T09:48:53;25.10;62.20
47174;DHT22;36730;49.036;9.094;2023-05-02T09:51:19;25.20;62.40
47174;DHT22;36730;49.036;9.094;2023-05-02T09:53:45;25.20;61.50
47174;DHT22;36730;49.036;9.094;2023-05-02T09:56:10;25.30;61.60
47174;DHT22;36730;49.036;9.094;2023-05-02T09:58:36;25.40;60.80
47174;DHT22;36730;49.036;9.094;2023-05-02T10:01:01;25.30;58.90
47174;DHT22;36730;49.036;9.094;2023-05-02T10:03:27;25.30;59.10
47174;DHT22;36730;49.036;9.094;2023-05-02T10:05:53;25.30;59.60
47174;DHT22;36730;49.036;9.094;2023-05-02T10:08:19;25.30;57.50
47174;DHT22;36730;49.036;9.094;2023-05-02T10:10:52;25.20;60.10
47174;DHT22;36730;49.036;9.094;2023-05-02T10:13:19;25.20;60.90
47174;DHT22;36730;49.036;9.094;2023-05-02T10:15:45;25.30;60.80
47174;DHT22;36730;49.036;9.094;2023-05-02T10:18:13;25.30;61.00
47174;DHT22;36730;49.036;9.094;2023-05-02T10:20:43;25.30;60.70
47174;DHT22;36730;49.036;9.094;2023-05-02T10:23:13;25.30;60.80
47174;DHT22;36730;49.036;9.094;2023-05-02T10:25:39;25.30;60.80
47174;DHT22;36730;49.036;9.094;2023-05-02T10:28:04;25.40;61.00
47174;DHT22;36730;49.036;9.094;2023-05-02T10:30:30;25.40;60.50
47174;DHT22;36730;49.036;9.094;2023-05-02T10:32:55;25.40;60.70
47174;DHT22;36730;49.036;9.094;2023-05-02T10:35:23;25.40;60.60
47174;DHT22;36730;49.036;9.094;2023-05-02T10:37:49;25.50;60.80
47174;DHT22;36730;49.036;9.094;2023-05-02T10:40:16;25.50;60.50
47174;DHT22;36730;49.036;9.094;2023-05-02T10:42:43;25.60;61.10
47174;DHT22;36730;49.036;9.094;2023-05-02T10:45:29;25.70;60.40
47174;DHT22;36730;49.036;9.094;2023-05-02T10:50:42;25.70;60.20
47174;DHT22;36730;49.036;9.094;2023-05-02T10:56:06;25.80;60.40
47174;DHT22;36730;49.036;9.094;2023-05-02T10:58:32;25.90;60.00
47174;DHT22;36730;49.036;9.094;2023-05-02T11:03:55;26.00;59.50
47174;DHT22;36730;49.036;9.094;2023-05-02T11:06:21;26.00;59.60
47174;DHT22;36730;49.036;9.094;2023-05-02T11:08:46;26.10;59.70
47174;DHT22;36730;49.036;9.094;2023-05-02T11:13:56;26.10;59.70
47174;DHT22;36730;49.036;9.094;2023-05-02T11:16:21;26.20;59.40
47174;DHT22;36730;49.036;9.094;2023-05-02T11:18:57;26.20;59.50
47174;DHT22;36730;49.036;9.094;2023-05-02T11:21:29;26.20;59.40
47174;DHT22;36730;49.036;9.094;2023-05-02T11:26:40;26.20;59.10
47174;DHT22;36730;49.036;9.094;2023-05-02T11:29:06;26.20;59.10
47174;DHT22;36730;49.036;9.094;2023-05-02T11:34:00;26.30;58.50
47174;DHT22;36730;49.036;9.094;2023-05-02T11:36:35;26.30;58.10
47174;DHT22;36730;49.036;9.094;2023-05-02T11:39:03;26.30;58.20
47174;DHT22;36730;49.036;9.094;2023-05-02T11:41:42;26.40;58.70
47174;DHT22;36730;49.036;9.094;2023-05-02T11:44:08;26.40;58.30
47174;DHT22;36730;49.036;9.094;2023-05-02T11:46:37;26.40;58.60
47174;DHT22;36730;49.036;9.094;2023-05-02T11:49:02;26.40;58.20
47174;DHT22;36730;49.036;9.094;2023-05-02T11:51:28;26.40;58.30
47174;DHT22;36730;49.036;9.094;2023-05-02T11:53:55;26.30;58.60
47174;DHT22;36730;49.036;9.094;2023-05-02T11:56:24;26.40;58.30
47174;DHT22;36730;49.036;9.094;2023-05-02T11:58:57;26.50;57.50
47174;DHT22;36730;49.036;9.094;2023-05-02T12:01:23;26.50;57.80
47174;DHT22;36730;49.036;9.094;2023-05-02T12:03:49;26.50;57.50
47174;DHT22;36730;49.036;9.094;2023-05-02T12:06:17;26.50;57.50
47174;DHT22;36730;49.036;9.094;2023-05-02T12:08:45;26.60;57.20
47174;DHT22;36730;49.036;9.094;2023-05-02T12:11:14;26.60;57.00
47174;DHT22;36730;49.036;9.094;2023-05-02T12:13:43;26.60;57.20
47174;DHT22;36730;49.036;9.094;2023-05-02T12:16:09;26.60;56.90
47174;DHT22;36730;49.036;9.094;2023-05-02T12:18:35;26.70;57.10
47174;DHT22;36730;49.036;9.094;2023-05-02T12:21:00;26.70;57.00
47174;DHT22;36730;49.036;9.094;2023-05-02T12:23:26;26.70;56.80
47174;DHT22;36730;49.036;9.094;2023-05-02T12:25:51;26.80;56.70
47174;DHT22;36730;49.036;9.094;2023-05-02T12:28:17;26.80;56.70
47174;DHT22;36730;49.036;9.094;2023-05-02T12:30:45;26.90;56.60
47174;DHT22;36730;49.036;9.094;2023-05-02T12:33:11;26.90;56.20
47174;DHT22;36730;49.036;9.094;2023-05-02T12:35:37;26.90;56.10
47174;DHT22;36730;49.036;9.094;2023-05-02T12:38:12;26.90;55.70
47174;DHT22;36730;49.036;9.094;2023-05-02T12:40:44;27.00;55.90
47174;DHT22;36730;49.036;9.094;2023-05-02T12:43:10;27.00;55.70
47174;DHT22;36730;49.036;9.094;2023-05-02T12:45:36;27.00;55.70
47174;DHT22;36730;49.036;9.094;2023-05-02T12:48:23;27.10;55.20
47174;DHT22;36730;49.036;9.094;2023-05-02T12:50:47;27.00;55.50
47174;DHT22;36730;49.036;9.094;2023-05-02T12:53:13;27.10;55.40
47174;DHT22;36730;49.036;9.094;2023-05-02T12:55:39;27.20;55.20
47174;DHT22;36730;49.036;9.094;2023-05-02T12:58:14;27.20;55.00
47174;DHT22;36730;49.036;9.094;2023-05-02T13:00:41;27.20;54.90
47174;DHT22;36730;49.036;9.094;2023-05-02T13:03:07;27.30;55.10
47174;DHT22;36730;49.036;9.094;2023-05-02T13:05:33;27.30;54.90
47174;DHT22;36730;49.036;9.094;2023-05-02T13:07:59;27.30;55.00
47174;DHT22;36730;49.036;9.094;2023-05-02T13:10:24;27.30;55.10
47174;DHT22;36730;49.036;9.094;2023-05-02T13:12:50;27.30;55.10
47174;DHT22;36730;49.036;9.094;2023-05-02T13:15:16;27.30;55.10
47174;DHT22;36730;49.036;9.094;2023-05-02T13:17:42;27.40;54.90
47174;DHT22;36730;49.036;9.094;2023-05-02T13:20:08;27.30;54.80
47174;DHT22;36730;49.036;9.094;2023-05-02T13:22:34;27.30;54.80
47174;DHT22;36730;49.036;9.094;2023-05-02T13:25:00;27.30;54.70
47174;DHT22;36730;49.036;9.094;2023-05-02T13:27:26;27.30;54.40
47174;DHT22;36730;49.036;9.094;2023-05-02T13:29:52;27.30;54.40
47174;DHT22;36730;49.036;9.094;2023-05-02T13:32:17;27.30;54.60
47174;DHT22;36730;49.036;9.094;2023-05-02T13:34:43;27.30;54.40
47174;DHT22;36730;49.036;9.094;2023-05-02T13:37:09;27.30;54.60
47174;DHT22;36730;49.036;9.094;2023-05-02T13:39:35;27.40;54.50
47174;DHT22;36730;49.036;9.094;2023-05-02T13:42:00;27.40;54.70
47174;DHT22;36730;49.036;9.094;2023-05-02T13:44:27;27.40;54.80
47174;DHT22;36730;49.036;9.094;2023-05-02T13:46:53;27.30;54.10
47174;DHT22;36730;49.036;9.094;2023-05-02T13:49:18;27.30;53.40
47174;DHT22;36730;49.036;9.094;2023-05-02T13:51:44;27.30;53.30
47174;DHT22;36730;49.036;9.094;2023-05-02T13:54:09;27.30;53.00
47174;DHT22;36730;49.036;9.094;2023-05-02T13:56:36;27.40;52.70
47174;DHT22;36730;49.036;9.094;2023-05-02T13:59:08;27.40;52.80
47174;DHT22;36730;49.036;9.094;2023-05-02T14:01:34;27.40;53.20
47174;DHT22;36730;49.036;9.094;2023-05-02T14:03:59;27.40;53.30
47174;DHT22;36730;49.036;9.094;2023-05-02T14:06:31;27.40;53.10
47174;DHT22;36730;49.036;9.094;2023-05-02T14:08:56;27.40;52.90
47174;DHT22;36730;49.036;9.094;2023-05-02T14:11:22;27.40;52.90
47174;DHT22;36730;49.036;9.094;2023-05-02T14:13:47;27.50;53.00
47174;DHT22;36730;49.036;9.094;2023-05-02T14:16:13;27.50;53.20
47174;DHT22;36730;49.036;9.094;2023-05-02T14:18:38;27.50;53.00
47174;DHT22;36730;49.036;9.094;2023-05-02T14:21:04;27.50;53.30
47174;DHT22;36730;49.036;9.094;2023-05-02T14:23:29;27.50;53.30
47174;DHT22;36730;49.036;9.094;2023-05-02T14:25:54;27.50;53.20
47174;DHT22;36730;49.036;9.094;2023-05-02T14:28:20;27.50;53.30
47174;DHT22;36730;49.036;9.094;2023-05-02T14:30:49;27.60;54.10
47174;DHT22;36730;49.036;9.094;2023-05-02T14:33:15;27.60;53.50
47174;DHT22;36730;49.036;9.094;2023-05-02T14:35:40;27.60;53.20
47174;DHT22;36730;49.036;9.094;2023-05-02T14:38:06;27.60;53.10
47174;DHT22;36730;49.036;9.094;2023-05-02T14:40:31;27.60;53.40
47174;DHT22;36730;49.036;9.094;2023-05-02T14:42:57;27.60;52.90
47174;DHT22;36730;49.036;9.094;2023-05-02T14:45:22;27.60;52.90
47174;DHT22;36730;49.036;9.094;2023-05-02T14:47:48;27.60;53.00
47174;DHT22;36730;49.036;9.094;2023-05-02T14:50:14;27.60;53.00
47174;DHT22;36730;49.036;9.094;2023-05-02T14:52:40;27.60;53.00
47174;DHT22;36730;49.036;9.094;2023-05-02T14:55:06;27.60;52.90
47174;DHT22;36730;49.036;9.094;2023-05-02T14:57:31;27.60;52.80
47174;DHT22;36730;49.036;9.094;2023-05-02T14:59:57;27.70;52.90
47174;DHT22;36730;49.036;9.094;2023-05-02T15:02:23;27.70;53.00
47174;DHT22;36730;49.036;9.094;2023-05-02T15:04:48;27.60;52.90
47174;DHT22;36730;49.036;9.094;2023-05-02T15:07:14;27.70;52.30
47174;DHT22;36730;49.036;9.094;2023-05-02T15:09:40;27.70;52.50
47174;DHT22;36730;49.036;9.094;2023-05-02T15:12:05;27.60;51.60
47174;DHT22;36730;49.036;9.094;2023-05-02T15:14:31;27.70;52.00
47174;DHT22;36730;49.036;9.094;2023-05-02T15:16:56;27.70;51.60
47174;DHT22;36730;49.036;9.094;2023-05-02T15:19:21;27.70;51.50
47174;DHT22;36730;49.036;9.094;2023-05-02T15:21:49;27.60;51.20
47174;DHT22;36730;49.036;9.094;2023-05-02T15:24:17;27.60;50.80
47174;DHT22;36730;49.036;9.094;2023-05-02T15:26:43;27.60;50.70
47174;DHT22;36730;49.036;9.094;2023-05-02T15:29:08;27.60;50.40
47174;DHT22;36730;49.036;9.094;2023-05-02T15:31:34;27.60;50.80
47174;DHT22;36730;49.036;9.094;2023-05-02T15:33:59;27.60;50.00
47174;DHT22;36730;49.036;9.094;2023-05-02T15:36:25;27.60;50.00
47174;DHT22;36730;49.036;9.094;2023-05-02T15:38:51;27.60;50.50
47174;DHT22;36730;49.036;9.094;2023-05-02T15:41:16;27.60;50.10
47174;DHT22;36730;49.036;9.094;2023-05-02T15:43:42;27.60;49.70
47174;DHT22;36730;49.036;9.094;2023-05-02T15:46:07;27.60;49.70
47174;DHT22;36730;49.036;9.094;2023-05-02T15:48:33;27.60;49.70
47174;DHT22;36730;49.036;9.094;2023-05-02T15:50:59;27.60;49.90
47174;DHT22;36730;49.036;9.094;2023-05-02T15:53:24;27.60;49.90
47174;DHT22;36730;49.036;9.094;2023-05-02T15:55:50;27.60;49.80